Time;durP1;ratioP1;P1;durP2;ratioP2;P2;SDS_P1;SDS_P2;PMS_P1;PMS_P2;Temp;Humidity;BMP_temperature;BMP_pressure;BME280_temperature;BME280_humidity;BME280_pressure;Samples;Min_cycle;Max_cycle;Signal;HPM_P1;HPM_P2
2023/12/04 00:00:03;;;;;;;3.78;2.08;;;17.80;54.30;;;;;;6147650;23;20138;-88
2023/12/04 00:02:29;;;;;;;2.63;2.00;;;17.80;54.10;;;;;;6172479;23;20130;-88
2023/12/04 00:04:55;;;;;;;3.70;2.28;;;17.70;54.40;;;;;;6138784;23;20142;-88
2023/12/04 00:07:21;;;;;;;2.78;2.30;;;17.70;54.30;;;;;;6137903;23;20590;-89
2023/12/04 00:09:48;;;;;;;3.15;2.10;;;17.70;53.90;;;;;;6112699;23;20135;-88
2023/12/04 00:12:14;;;;;;;3.08;1.80;;;17.70;54.30;;;;;;6112857;23;20557;-89
2023/12/04 00:17:07;;;;;;;2.10;1.80;;;17.70;54.40;;;;;;6148745;23;20222;-88
2023/12/04 00:19:32;;;;;;;3.55;2.30;;;17.70;54.30;;;;;;6167556;23;20158;-87
2023/12/04 00:22:00;;;;;;;4.18;2.05;;;17.70;54.40;;;;;;6136740;23;20229;-87
2023/12/04 00:24:31;;;;;;;3.17;2.08;;;17.60;54.30;;;;;;6118346;23;20143;-90
2023/12/04 00:26:58;;;;;;;3.28;2.08;;;17.60;54.40;;;;;;6142559;23;20159;-87
2023/12/04 00:31:59;;;;;;;2.97;2.20;;;17.70;54.40;;;;;;6191287;23;20210;-89
2023/12/04 00:34:25;;;;;;;3.83;1.90;;;17.70;54.50;;;;;;6144525;23;20181;-89
2023/12/04 00:39:17;;;;;;;2.88;1.90;;;17.60;54.40;;;;;;6195599;23;20206;-89
2023/12/04 00:41:43;;;;;;;2.10;1.80;;;17.60;54.40;;;;;;6138960;23;20202;-89
2023/12/04 00:44:09;;;;;;;2.25;1.90;;;17.60;54.40;;;;;;6139673;23;20148;-89
2023/12/04 00:46:35;;;;;;;2.08;1.77;;;17.70;54.40;;;;;;6165015;23;20211;-89
2023/12/04 00:49:02;;;;;;;3.30;2.10;;;17.60;54.40;;;;;;6139631;23;20490;-90
2023/12/04 00:51:36;;;;;;;3.08;2.00;;;17.60;54.40;;;;;;6139518;23;20163;-90
2023/12/04 00:54:03;;;;;;;2.35;1.85;;;17.60;54.40;;;;;;6139587;23;20209;-89
2023/12/04 00:56:28;;;;;;;3.63;1.98;;;17.60;54.60;;;;;;6167927;23;20139;-88
2023/12/04 00:58:54;;;;;;;3.38;2.13;;;17.60;54.60;;;;;;6169668;23;20585;-89
2023/12/04 01:01:24;;;;;;;3.85;1.95;;;17.60;54.30;;;;;;6167521;23;20163;-89
2023/12/04 01:03:51;;;;;;;2.65;2.03;;;17.60;54.50;;;;;;6146681;23;20155;-89
2023/12/04 01:06:24;;;;;;;2.47;1.98;;;17.60;54.40;;;;;;6120475;23;20150;-90
2023/12/04 01:08:50;;;;;;;2.20;1.80;;;17.60;54.50;;;;;;6169521;23;20195;-89
2023/12/04 01:11:17;;;;;;;2.45;1.88;;;17.50;54.50;;;;;;6145134;23;20171;-89
2023/12/04 01:13:43;;;;;;;2.90;2.40;;;17.60;54.40;;;;;;6169730;23;20220;-88
2023/12/04 01:16:09;;;;;;;3.72;1.90;;;17.50;54.40;;;;;;6145710;23;20139;-88
2023/12/04 01:24:06;;;;;;;2.22;1.95;;;17.60;54.60;;;;;;6162815;23;20557;-89
2023/12/04 01:26:34;;;;;;;3.92;2.30;;;17.60;54.60;;;;;;6154929;23;20140;-88
2023/12/04 01:29:03;;;;;;;3.35;2.17;;;17.50;54.40;;;;;;6144355;23;20147;-89
2023/12/04 01:31:29;;;;;;;2.50;2.00;;;17.50;54.40;;;;;;6168385;23;20173;-88
2023/12/04 01:33:54;;;;;;;2.80;2.00;;;17.50;54.40;;;;;;6143541;23;20142;-88
2023/12/04 01:36:20;;;;;;;3.00;2.13;;;17.50;54.50;;;;;;6169233;23;20128;-88
2023/12/04 01:38:47;;;;;;;2.30;1.95;;;17.60;54.60;;;;;;6143601;23;20143;-87
2023/12/04 01:43:45;;;;;;;3.00;2.03;;;17.50;54.70;;;;;;6106195;23;20197;-87
2023/12/04 01:46:17;;;;;;;2.67;1.90;;;17.50;54.60;;;;;;6073798;23;20153;-87
2023/12/04 01:48:47;;;;;;;1.80;1.70;;;17.50;54.60;;;;;;6116451;23;20193;-90
2023/12/04 01:51:12;;;;;;;2.90;1.63;;;17.50;54.60;;;;;;6168022;23;20221;-89
2023/12/04 01:53:40;;;;;;;2.40;1.90;;;17.50;54.70;;;;;;6143881;23;20143;-89
2023/12/04 01:56:07;;;;;;;2.42;1.95;;;17.50;54.70;;;;;;6142671;23;20635;-89
2023/12/04 01:58:33;;;;;;;3.70;2.10;;;17.50;54.60;;;;;;6167918;23;20138;-89
2023/12/04 02:01:00;;;;;;;2.72;1.95;;;17.50;54.50;;;;;;6167371;23;20135;-88
2023/12/04 02:03:26;;;;;;;2.78;2.03;;;17.50;54.60;;;;;;6143886;23;20211;-89
2023/12/04 02:05:53;;;;;;;4.53;2.38;;;17.60;54.70;;;;;;6143599;23;20135;-88
2023/12/04 02:08:19;;;;;;;2.33;1.90;;;17.50;54.80;;;;;;6143852;23;20143;-89
2023/12/04 02:10:45;;;;;;;3.88;1.70;;;17.40;54.60;;;;;;6143024;23;20221;-88
2023/12/04 02:13:13;;;;;;;3.65;2.13;;;17.40;54.70;;;;;;6141177;23;20139;-88
2023/12/04 02:15:39;;;;;;;2.00;1.60;;;17.40;54.60;;;;;;6142055;23;20578;-88
2023/12/04 02:18:06;;;;;;;2.80;1.90;;;17.40;54.40;;;;;;6105771;23;20156;-89
2023/12/04 02:20:33;;;;;;;2.15;1.88;;;17.50;54.40;;;;;;6082014;23;20456;-89
2023/12/04 02:23:02;;;;;;;2.80;1.80;;;17.50;54.60;;;;;;6059143;23;20626;-88
2023/12/04 02:25:28;;;;;;;2.00;1.77;;;17.40;54.60;;;;;;6083527;23;20136;-88
2023/12/04 02:27:54;;;;;;;3.20;2.10;;;17.50;54.60;;;;;;6082034;23;20239;-89
2023/12/04 02:30:26;;;;;;;2.30;1.85;;;17.40;54.60;;;;;;6060052;23;20174;-88
2023/12/04 02:32:52;;;;;;;3.03;1.80;;;17.50;54.80;;;;;;6082913;23;20160;-89
2023/12/04 02:35:20;;;;;;;2.97;2.13;;;17.40;54.60;;;;;;6108415;23;20144;-90
2023/12/04 02:37:46;;;;;;;2.47;2.00;;;17.40;54.70;;;;;;6084202;23;20150;-89
2023/12/04 02:40:14;;;;;;;3.47;1.83;;;17.40;54.50;;;;;;6083674;23;20215;-89
2023/12/04 02:42:46;;;;;;;2.78;1.83;;;17.50;54.60;;;;;;6083677;23;20155;-88
2023/12/04 02:45:14;;;;;;;2.45;1.90;;;17.40;54.60;;;;;;6108347;23;21024;-88
2023/12/04 02:47:41;;;;;;;2.20;1.80;;;17.40;54.50;;;;;;6083246;23;20191;-89
2023/12/04 02:50:07;;;;;;;2.38;1.90;;;17.40;54.50;;;;;;6112133;23;20199;-88
2023/12/04 02:52:35;;;;;;;1.88;1.70;;;17.40;54.50;;;;;;6162716;23;20175;-89
2023/12/04 02:55:03;;;;;;;2.22;1.90;;;17.40;54.40;;;;;;6139071;23;20147;-88
2023/12/04 03:04:57;;;;;;;2.42;2.00;;;17.40;54.60;;;;;;6155764;23;20276;-87
2023/12/04 03:07:24;;;;;;;3.60;2.03;;;17.40;54.60;;;;;;6113636;23;20194;-88
2023/12/04 03:09:53;;;;;;;2.90;2.00;;;17.40;54.60;;;;;;6115018;23;20151;-88
2023/12/04 03:12:19;;;;;;;2.30;1.77;;;17.40;54.60;;;;;;6162778;23;20599;-87
2023/12/04 03:17:10;;;;;;;2.92;1.90;;;17.40;54.70;;;;;;6159868;23;20207;-88
2023/12/04 03:19:38;;;;;;;2.50;1.92;;;17.40;54.70;;;;;;6135361;23;20271;-90
2023/12/04 03:22:05;;;;;;;2.55;2.00;;;17.40;54.50;;;;;;6138294;23;20151;-88
2023/12/04 03:24:32;;;;;;;2.47;2.10;;;17.40;54.60;;;;;;6113552;23;20207;-88
2023/12/04 03:26:57;;;;;;;4.07;2.00;;;17.30;54.40;;;;;;6112668;23;20147;-88
2023/12/04 03:29:23;;;;;;;2.75;1.90;;;17.40;55.10;;;;;;6111632;23;20159;-87
2023/12/04 03:31:52;;;;;;;2.95;1.92;;;17.30;54.60;;;;;;6113356;23;20179;-87
2023/12/04 03:34:18;;;;;;;3.30;2.30;;;17.30;54.60;;;;;;6162441;23;20633;-88
2023/12/04 03:36:44;;;;;;;2.08;1.83;;;17.30;54.50;;;;;;6143931;23;20267;-87
2023/12/04 03:39:10;;;;;;;1.98;1.77;;;17.30;54.50;;;;;;6137904;23;20582;-88
2023/12/04 03:41:35;;;;;;;3.53;2.15;;;17.40;54.50;;;;;;6137410;23;20158;-88
2023/12/04 03:44:04;;;;;;;1.77;1.67;;;17.40;54.60;;;;;;6137202;23;20575;-87
2023/12/04 03:46:31;;;;;;;2.33;1.75;;;17.30;54.60;;;;;;6161706;23;20155;-87
2023/12/04 03:48:59;;;;;;;2.70;1.77;;;17.30;54.50;;;;;;6136343;23;20578;-88
2023/12/04 03:51:28;;;;;;;2.47;1.80;;;17.30;54.50;;;;;;6137348;23;20179;-87
2023/12/04 03:53:54;;;;;;;2.28;1.88;;;17.30;54.40;;;;;;6161517;23;20207;-88
2023/12/04 03:56:20;;;;;;;2.63;2.10;;;17.30;54.40;;;;;;6160077;23;20128;-89
2023/12/04 03:58:46;;;;;;;2.58;1.88;;;17.30;54.40;;;;;;6070872;23;20161;-89
2023/12/04 04:01:14;;;;;;;2.00;1.65;;;17.30;54.50;;;;;;6048928;23;20169;-87
2023/12/04 04:03:43;;;;;;;2.70;1.83;;;17.30;54.60;;;;;;6049047;23;20149;-87
2023/12/04 04:06:09;;;;;;;2.28;1.63;;;17.30;54.60;;;;;;6026026;23;20233;-88
2023/12/04 04:08:37;;;;;;;2.03;1.80;;;17.30;54.40;;;;;;6026722;23;20216;-88
2023/12/04 04:11:04;;;;;;;2.38;1.88;;;17.30;54.60;;;;;;6050845;23;20748;-88
2023/12/04 04:13:33;;;;;;;2.92;1.85;;;17.30;54.30;;;;;;6055446;23;20171;-87
2023/12/04 04:15:59;;;;;;;2.70;1.80;;;17.30;54.50;;;;;;6103549;23;20180;-87
2023/12/04 04:18:33;;;;;;;4.70;2.15;;;17.30;55.00;;;;;;6079800;23;20148;-88
2023/12/04 04:21:01;;;;;;;2.67;1.85;;;17.30;55.10;;;;;;6080486;23;20171;-89
2023/12/04 04:23:28;;;;;;;2.33;2.00;;;17.30;54.60;;;;;;6079252;23;20141;-88
2023/12/04 04:25:56;;;;;;;1.95;1.70;;;17.40;54.50;;;;;;6079544;23;20175;-88
2023/12/04 04:28:21;;;;;;;2.55;2.03;;;17.30;54.60;;;;;;6079435;23;20149;-88
2023/12/04 04:30:47;;;;;;;2.30;1.70;;;17.30;54.50;;;;;;6134009;23;20178;-88
2023/12/04 04:33:13;;;;;;;2.40;2.10;;;17.30;54.40;;;;;;6138186;23;20158;-88
2023/12/04 04:35:40;;;;;;;3.03;1.98;;;17.30;54.50;;;;;;6138522;23;20199;-88
2023/12/04 04:38:07;;;;;;;3.42;2.08;;;17.30;54.40;;;;;;6138487;23;20190;-88
2023/12/04 04:40:33;;;;;;;3.72;2.05;;;17.30;54.30;;;;;;6141332;23;20179;-88
2023/12/04 04:45:26;;;;;;;2.00;1.80;;;17.30;54.50;;;;;;6162895;23;20589;-89
2023/12/04 04:47:53;;;;;;;2.22;1.85;;;17.30;54.40;;;;;;6122005;23;20139;-88
2023/12/04 04:50:19;;;;;;;3.42;2.10;;;17.30;54.40;;;;;;6145900;23;20186;-88
2023/12/04 04:52:45;;;;;;;2.78;2.05;;;17.30;54.50;;;;;;6170555;23;20178;-87
2023/12/04 04:55:12;;;;;;;1.80;1.70;;;17.30;54.50;;;;;;6169772;23;20194;-88
2023/12/04 04:57:39;;;;;;;2.80;1.95;;;17.20;54.40;;;;;;6170295;23;20146;-87
2023/12/04 05:00:06;;;;;;;2.22;2.00;;;17.30;54.50;;;;;;6145907;23;20605;-88
2023/12/04 05:02:34;;;;;;;2.08;1.83;;;17.20;54.30;;;;;;6144865;23;20139;-88
2023/12/04 05:05:03;;;;;;;2.38;1.80;;;17.20;54.40;;;;;;6133847;23;20162;-88
2023/12/04 05:07:29;;;;;;;3.33;1.90;;;17.30;54.50;;;;;;6126857;23;20216;-87
2023/12/04 05:09:55;;;;;;;2.80;2.20;;;17.20;54.40;;;;;;6173990;23;20146;-88
2023/12/04 05:12:25;;;;;;;3.03;1.90;;;17.30;54.50;;;;;;6175134;23;20581;-88
2023/12/04 05:14:52;;;;;;;2.20;2.00;;;17.20;54.50;;;;;;6175802;23;20286;-88
2023/12/04 05:17:18;;;;;;;2.15;1.70;;;17.20;54.60;;;;;;6113610;23;20198;-88
2023/12/04 05:19:45;;;;;;;2.58;2.05;;;17.20;54.30;;;;;;6116876;23;20163;-87
2023/12/04 05:22:12;;;;;;;2.45;1.73;;;17.20;54.40;;;;;;6115344;23;20213;-88
2023/12/04 05:24:38;;;;;;;3.08;2.08;;;17.20;54.50;;;;;;6138964;23;20140;-88
2023/12/04 05:27:04;;;;;;;2.20;1.92;;;17.20;54.60;;;;;;6139090;23;20151;-89
2023/12/04 05:29:30;;;;;;;2.50;1.65;;;17.30;54.50;;;;;;6163655;23;20131;-89
2023/12/04 05:31:57;;;;;;;2.75;2.20;;;17.20;54.40;;;;;;6143839;23;20270;-89
2023/12/04 05:34:23;;;;;;;2.25;1.77;;;17.20;54.60;;;;;;6169503;23;20151;-87
2023/12/04 05:36:49;;;;;;;2.47;1.90;;;17.20;54.40;;;;;;6165611;23;20157;-88
2023/12/04 05:39:15;;;;;;;1.98;1.73;;;17.20;54.40;;;;;;6158768;23;20142;-89
2023/12/04 05:41:41;;;;;;;2.30;1.77;;;17.20;54.50;;;;;;6158577;23;20479;-89
2023/12/04 05:44:07;;;;;;;2.40;1.80;;;17.20;54.30;;;;;;6128183;23;20931;-89
2023/12/04 05:46:34;;;;;;;2.70;2.00;;;17.20;54.50;;;;;;6127915;23;20498;-87
2023/12/04 05:49:01;;;;;;;2.30;1.80;;;17.20;54.50;;;;;;6135117;23;20146;-89
2023/12/04 05:51:29;;;;;;;2.53;1.77;;;17.20;54.40;;;;;;6159063;23;20250;-88
2023/12/04 05:53:56;;;;;;;2.47;1.90;;;17.20;54.40;;;;;;6135360;23;20142;-88
2023/12/04 05:56:24;;;;;;;2.28;2.00;;;17.30;54.40;;;;;;6161345;23;20163;-88
2023/12/04 05:58:51;;;;;;;2.33;1.90;;;17.20;54.40;;;;;;6161260;23;20146;-89
2023/12/04 06:01:17;;;;;;;2.35;2.08;;;17.30;54.50;;;;;;6159712;23;20169;-88
2023/12/04 06:03:42;;;;;;;2.50;1.90;;;17.20;54.40;;;;;;6138817;23;20139;-89
2023/12/04 06:06:08;;;;;;;2.47;1.83;;;17.10;54.40;;;;;;6139052;23;20139;-87
2023/12/04 06:08:34;;;;;;;2.38;2.13;;;17.20;54.30;;;;;;6141387;23;20151;-87
2023/12/04 06:11:00;;;;;;;3.17;1.80;;;17.20;54.30;;;;;;6164051;23;20158;-89
2023/12/04 06:13:25;;;;;;;2.95;2.20;;;17.20;54.40;;;;;;6160989;23;20131;-89
2023/12/04 06:15:52;;;;;;;2.67;1.83;;;17.20;54.40;;;;;;6137365;23;20195;-88
2023/12/04 06:18:20;;;;;;;2.70;1.90;;;17.20;54.40;;;;;;6137181;23;20470;-88
2023/12/04 06:23:12;;;;;;;2.33;1.80;;;17.20;54.40;;;;;;6186824;23;20273;-89
2023/12/04 06:28:20;;;;;;;2.17;1.75;;;17.20;54.40;;;;;;6154194;23;20296;-87
2023/12/04 06:30:46;;;;;;;3.88;1.90;;;17.10;54.20;;;;;;6130884;23;20510;-90
2023/12/04 06:33:14;;;;;;;2.20;1.88;;;17.20;54.30;;;;;;6144290;23;20666;-87
2023/12/04 06:35:41;;;;;;;2.63;1.98;;;17.20;54.40;;;;;;6168158;23;20150;-86
2023/12/04 06:38:15;;;;;;;2.15;1.88;;;17.20;54.30;;;;;;6197786;23;20154;-88
2023/12/04 06:40:49;;;;;;;2.38;2.00;;;17.20;54.20;;;;;;6103137;23;20558;-88
2023/12/04 06:43:18;;;;;;;3.33;1.92;;;17.20;54.10;;;;;;6076655;23;20156;-87
2023/12/04 06:45:47;;;;;;;2.63;1.90;;;17.20;54.20;;;;;;6052243;23;20157;-88
2023/12/04 06:48:13;;;;;;;1.92;1.73;;;17.20;54.20;;;;;;6075340;23;20623;-88
2023/12/04 06:50:40;;;;;;;2.65;1.83;;;17.20;54.20;;;;;;6049931;23;20611;-89
2023/12/04 06:53:06;;;;;;;3.15;2.00;;;17.20;54.10;;;;;;6048719;23;20162;-88
2023/12/04 06:55:32;;;;;;;1.92;1.60;;;17.10;54.10;;;;;;6049210;23;20148;-89
2023/12/04 06:57:59;;;;;;;2.47;1.90;;;17.20;54.00;;;;;;6052117;23;20145;-89
2023/12/04 07:00:25;;;;;;;2.60;2.10;;;17.20;54.20;;;;;;6050628;23;20196;-87
2023/12/04 07:02:51;;;;;;;1.90;1.67;;;17.20;54.20;;;;;;6074882;23;20156;-88
2023/12/04 07:05:19;;;;;;;2.13;1.80;;;17.20;54.30;;;;;;6081397;23;20151;-88
2023/12/04 07:07:48;;;;;;;2.63;1.95;;;17.20;54.30;;;;;;6108264;23;20170;-88
2023/12/04 07:10:14;;;;;;;2.45;1.75;;;17.20;53.50;;;;;;6112038;23;20553;-89
2023/12/04 07:12:44;;;;;;;2.10;1.77;;;17.30;53.80;;;;;;6144097;23;20180;-88
2023/12/04 07:15:11;;;;;;;1.98;1.65;;;17.20;53.70;;;;;;6174887;23;20145;-88
2023/12/04 07:17:41;;;;;;;2.58;1.80;;;17.30;53.20;;;;;;6197636;23;20126;-89
2023/12/04 07:20:11;;;;;;;2.13;1.63;;;17.30;53.00;;;;;;6191475;23;20134;-87
2023/12/04 07:22:37;;;;;;;2.00;1.80;;;17.30;53.20;;;;;;6165919;23;20152;-86
2023/12/04 07:25:10;;;;;;;2.47;1.85;;;17.40;53.30;;;;;;6166582;23;20162;-88
2023/12/04 07:27:45;;;;;;;2.45;1.83;;;17.30;53.20;;;;;;6197080;23;20210;-85
2023/12/04 07:30:24;;;;;;;;;;;;;;;;;;;;;
2023/12/04 07:32:56;;;;;;;1.95;1.70;;;17.30;53.00;;;;;;6191318;23;20265;-86
2023/12/04 08:08:24;;;;;;;2.05;1.70;;;17.40;52.70;;;;;;6196398;23;20217;-85
2023/12/04 08:10:50;;;;;;;1.92;1.50;;;17.50;52.10;;;;;;6168343;23;20157;-85
2023/12/04 08:13:16;;;;;;;2.72;1.80;;;17.50;52.30;;;;;;6147641;23;20146;-84
2023/12/04 08:15:46;;;;;;;2.13;1.70;;;17.50;52.80;;;;;;6147804;23;20143;-84
2023/12/04 08:18:47;;;;;;;2.90;1.70;;;17.50;52.70;;;;;;6171842;23;20146;-84
2023/12/04 08:21:14;;;;;;;1.95;1.70;;;17.50;53.20;;;;;;6055832;23;20167;-83
2023/12/04 08:23:53;;;;;;;2.08;1.70;;;17.50;52.60;;;;;;6058459;23;20212;-83
2023/12/04 08:26:53;;;;;;;3.38;1.80;;;17.50;53.10;;;;;;6010232;23;20240;-83
2023/12/04 08:37:12;;;;;;;;;;;;;;;;;;;;;
2023/12/04 08:39:43;;;;;;;2.42;1.50;;;17.50;52.40;;;;;;5750146;25;20346;-84
2023/12/04 08:42:09;;;;;;;5.00;1.52;;;17.60;52.20;;;;;;5751138;24;20176;-83
2023/12/04 08:44:35;;;;;;;2.10;1.70;;;17.60;52.00;;;;;;5748725;24;20169;-83
2023/12/04 08:47:01;;;;;;;3.70;1.60;;;17.60;52.30;;;;;;5728609;24;20233;-82
2023/12/04 08:49:40;;;;;;;6.25;1.85;;;17.60;52.10;;;;;;5750919;25;20176;-83
2023/12/04 08:52:19;;;;;;;2.47;1.80;;;17.70;51.90;;;;;;5748657;25;20502;-82
2023/12/04 08:54:55;;;;;;;2.50;1.80;;;17.70;52.10;;;;;;5699319;25;20671;-82
2023/12/04 08:57:24;;;;;;;4.65;1.60;;;17.80;51.10;;;;;;5740756;24;20170;-82
2023/12/04 09:00:23;;;;;;;3.92;1.70;;;17.80;51.30;;;;;;5762121;24;20160;-82
2023/12/04 09:02:53;;;;;;;5.45;1.67;;;17.90;50.30;;;;;;5824676;24;20309;-83
2023/12/04 09:05:20;;;;;;;3.80;1.58;;;17.90;51.80;;;;;;5816990;24;20160;-83
2023/12/04 09:08:09;;;;;;;3.78;1.40;;;17.90;50.80;;;;;;5796396;24;20305;-83
2023/12/04 09:11:04;;;;;;;3.22;1.73;;;17.90;51.80;;;;;;5784335;24;20176;-83
2023/12/04 09:13:45;;;;;;;6.38;1.75;;;17.80;51.60;;;;;;5847981;24;20175;-82
2023/12/04 09:16:11;;;;;;;4.70;1.92;;;17.90;52.10;;;;;;5915241;24;20243;-86
2023/12/04 09:18:49;;;;;;;7.35;2.13;;;17.90;51.80;;;;;;5936471;24;20152;-82
2023/12/04 09:22:01;;;;;;;6.63;1.63;;;17.90;52.20;;;;;;5931436;24;20666;-83
2023/12/04 09:24:51;;;;;;;3.67;1.60;;;17.90;52.30;;;;;;5929863;23;20168;-82
2023/12/04 09:27:54;;;;;;;6.72;1.98;;;17.90;52.40;;;;;;5978290;23;20159;-84
2023/12/04 09:30:21;;;;;;;7.00;1.80;;;17.90;53.30;;;;;;5886070;24;20665;-82
2023/12/04 09:32:50;;;;;;;7.55;1.88;;;17.90;52.20;;;;;;5905920;24;20195;-82
2023/12/04 09:36:12;;;;;;;3.10;1.73;;;18.00;52.30;;;;;;5917654;24;20216;-86
2023/12/04 09:39:25;;;;;;;5.50;1.90;;;18.00;51.70;;;;;;5801975;24;20175;-85
2023/12/04 09:42:03;;;;;;;6.35;1.52;;;18.00;51.90;;;;;;5798129;24;20164;-83
2023/12/04 09:44:52;;;;;;;;;;;;;;;;;;;;;
2023/12/04 09:50:50;;;;;;;4.90;1.70;;;18.00;51.50;;;;;;5752946;24;20171;-82
2023/12/04 09:53:22;;;;;;;2.88;1.50;;;18.00;52.30;;;;;;5725868;25;20198;-85
2023/12/04 09:56:32;;;;;;;2.22;1.58;;;18.00;52.00;;;;;;5653237;25;20213;-87
2023/12/04 10:02:17;;;;;;;4.18;1.70;;;18.10;50.90;;;;;;5646614;25;20172;-85
2023/12/04 10:05:11;;;;;;;1.50;1.40;;;18.20;51.10;;;;;;5600758;25;20177;-84
2023/12/04 10:08:11;;;;;;;3.40;1.80;;;18.20;51.00;;;;;;5570041;25;20342;-85
2023/12/04 10:11:55;;;;;;;2.90;1.83;;;18.10;52.40;;;;;;5555372;25;20181;-85
2023/12/04 10:14:00;;;;;;;3.00;1.55;;;18.10;52.10;;;;;;5570968;25;20183;-85
2023/12/04 10:20:39;;;;;;;4.30;1.60;;;18.10;52.60;;;;;;5702276;25;20193;-86
2023/12/04 10:23:31;;;;;;;;;;;;;;;;;;;;;
2023/12/04 10:26:08;;;;;;;2.13;1.67;;;18.10;52.70;;;;;;5705610;25;20282;-85
2023/12/04 10:29:01;;;;;;;5.70;1.52;;;18.10;52.80;;;;;;5749072;25;20229;-85
2023/12/04 10:31:26;;;;;;;4.28;1.55;;;18.10;52.70;;;;;;5724803;25;20198;-85
2023/12/04 10:34:05;;;;;;;2.15;1.42;;;18.10;52.70;;;;;;5661325;25;20196;-85
2023/12/04 10:36:46;;;;;;;3.28;1.50;;;18.00;52.70;;;;;;5730402;24;20161;-85
2023/12/04 10:39:18;;;;;;;3.30;1.73;;;18.10;52.50;;;;;;5839424;24;20151;-86
2023/12/04 10:42:03;;;;;;;4.38;1.45;;;18.00;52.50;;;;;;5835477;24;20227;-85
2023/12/04 10:44:39;;;;;;;2.97;1.70;;;18.10;52.10;;;;;;5810367;24;20167;-85
2023/12/04 10:47:13;;;;;;;4.10;1.40;;;18.10;52.50;;;;;;5838708;24;20166;-87
2023/12/04 10:50:12;;;;;;;3.28;1.50;;;18.10;51.50;;;;;;5896790;24;20784;-84
2023/12/04 10:52:40;;;;;;;2.47;1.38;;;18.20;52.00;;;;;;5950209;24;20188;-84
2023/12/04 10:55:17;;;;;;;4.90;1.63;;;18.20;52.10;;;;;;5964812;24;20157;-84
2023/12/04 10:57:43;;;;;;;2.72;1.45;;;18.10;52.10;;;;;;5911500;24;20266;-84
2023/12/04 11:00:24;;;;;;;3.78;1.60;;;18.10;51.70;;;;;;5920416;24;20156;-84
2023/12/04 11:02:56;;;;;;;3.05;1.50;;;18.20;52.00;;;;;;5896745;24;20173;-85
2023/12/04 11:05:24;;;;;;;2.47;1.60;;;18.10;51.90;;;;;;5838262;24;20179;-86
2023/12/04 11:07:52;;;;;;;2.67;1.42;;;18.20;51.60;;;;;;5928468;24;20202;-85
2023/12/04 11:10:24;;;;;;;2.58;1.58;;;18.20;51.70;;;;;;5966203;24;20160;-86
2023/12/04 11:13:06;;;;;;;1.77;1.35;;;18.20;51.70;;;;;;5923795;24;20248;-85
2023/12/04 11:15:50;;;;;;;1.58;1.48;;;18.20;51.10;;;;;;5927147;24;20159;-85
2023/12/04 11:18:26;;;;;;;2.95;1.23;;;18.20;51.40;;;;;;5912235;24;20180;-84
2023/12/04 11:20:59;;;;;;;1.50;1.40;;;18.20;51.90;;;;;;5912790;24;20157;-85
2023/12/04 11:23:32;;;;;;;1.88;1.63;;;18.20;52.00;;;;;;5895304;24;20187;-85
2023/12/04 11:26:05;;;;;;;2.17;1.30;;;18.20;51.80;;;;;;5879801;24;20156;-86
2023/12/04 11:31:36;;;;;;;1.60;1.23;;;18.20;51.70;;;;;;6194561;23;20205;-86
2023/12/04 11:34:36;;;;;;;1.50;1.27;;;18.20;51.70;;;;;;6116561;23;20151;-87
2023/12/04 11:37:13;;;;;;;2.72;1.40;;;18.20;50.60;;;;;;6079129;23;20152;-85
2023/12/04 11:39:58;;;;;;;1.60;1.25;;;18.20;51.60;;;;;;6027925;23;20154;-86
2023/12/04 11:42:33;;;;;;;3.13;1.40;;;18.20;51.40;;;;;;5974012;24;20163;-87
2023/12/04 11:45:05;;;;;;;1.58;1.45;;;18.20;51.60;;;;;;5889321;24;20160;-86
2023/12/04 11:47:51;;;;;;;2.08;1.33;;;18.20;51.60;;;;;;5912704;24;20173;-88
2023/12/04 11:51:02;;;;;;;4.75;1.35;;;18.20;51.50;;;;;;5888520;24;20191;-88
2023/12/04 11:53:29;;;;;;;1.30;1.17;;;18.20;51.40;;;;;;5914421;24;20225;-88
2023/12/04 11:56:10;;;;;;;2.78;1.40;;;18.20;51.20;;;;;;5911047;24;20248;-89
2023/12/04 11:59:15;;;;;;;2.45;1.17;;;18.20;51.30;;;;;;5829438;24;20165;-90
2023/12/04 12:01:41;;;;;;;1.77;1.40;;;18.20;51.50;;;;;;5767181;24;20168;-87
2023/12/04 12:04:16;;;;;;;1.90;1.67;;;18.20;52.10;;;;;;5724281;24;20192;-85
2023/12/04 12:06:42;;;;;;;1.40;1.30;;;18.30;51.70;;;;;;5742716;24;20164;-86
2023/12/04 12:09:08;;;;;;;1.52;1.20;;;18.20;51.40;;;;;;5768507;24;20535;-87
2023/12/04 12:11:36;;;;;;;2.65;1.30;;;18.30;51.40;;;;;;5771397;24;20585;-88
2023/12/04 12:14:04;;;;;;;1.70;1.30;;;18.30;50.80;;;;;;5769159;24;20164;-85
2023/12/04 12:16:35;;;;;;;1.67;1.25;;;18.20;51.70;;;;;;5769433;24;20157;-87
2023/12/04 12:19:25;;;;;;;;;;;;;;;;;;;;;
2023/12/04 12:21:54;;;;;;;2.85;1.25;;;18.30;51.10;;;;;;5780885;24;20253;-88
2023/12/04 12:24:20;;;;;;;2.25;1.13;;;18.20;50.70;;;;;;5807452;24;20187;-86
2023/12/04 12:26:47;;;;;;;1.20;1.10;;;18.20;50.90;;;;;;5865649;24;20728;-85
2023/12/04 12:29:13;;;;;;;3.38;1.20;;;18.20;51.20;;;;;;5944614;23;20190;-87
2023/12/04 12:31:39;;;;;;;1.50;1.30;;;18.20;51.70;;;;;;6006185;23;20190;-84
2023/12/04 12:34:06;;;;;;;1.60;1.33;;;18.20;51.70;;;;;;6040979;23;20162;-85
2023/12/04 12:41:35;;;;;;;2.78;1.30;;;18.30;51.60;;;;;;6181630;23;20217;-84
2023/12/04 12:44:05;;;;;;;1.17;1.08;;;18.20;51.30;;;;;;6160840;23;20595;-84
2023/12/04 12:46:37;;;;;;;1.83;1.30;;;18.20;51.20;;;;;;6113752;23;20155;-83
2023/12/04 12:49:04;;;;;;;1.23;1.10;;;18.20;51.10;;;;;;6161059;23;20169;-83
2023/12/04 12:51:31;;;;;;;1.33;1.23;;;18.30;51.10;;;;;;6137476;23;20171;-86
2023/12/04 12:53:57;;;;;;;2.00;1.02;;;18.30;50.90;;;;;;6161248;23;20533;-83
2023/12/04 12:56:23;;;;;;;1.30;1.20;;;18.30;50.40;;;;;;6160342;23;20186;-84
2023/12/04 12:58:55;;;;;;;2.05;1.10;;;18.30;51.00;;;;;;6136633;23;20146;-89
2023/12/04 13:01:25;;;;;;;1.50;1.10;;;18.30;51.20;;;;;;6136661;23;20641;-85
2023/12/04 13:03:51;;;;;;;1.77;1.00;;;18.30;51.20;;;;;;6162840;23;20206;-86
2023/12/04 13:06:18;;;;;;;1.52;0.98;;;18.30;51.20;;;;;;6160713;23;20127;-85
2023/12/04 13:08:45;;;;;;;1.42;1.23;;;18.20;51.60;;;;;;6161089;23;20210;-84
2023/12/04 13:11:11;;;;;;;1.30;1.17;;;18.20;50.70;;;;;;6134605;23;20222;-84
2023/12/04 13:13:37;;;;;;;1.63;1.05;;;18.20;51.80;;;;;;6159268;23;20138;-84
2023/12/04 13:16:03;;;;;;;1.77;1.10;;;18.20;51.70;;;;;;6187564;23;20135;-84
2023/12/04 13:18:31;;;;;;;1.30;1.10;;;18.20;51.50;;;;;;6160757;23;20182;-86
2023/12/04 13:20:57;;;;;;;1.15;1.05;;;18.20;50.70;;;;;;6137188;23;20143;-85
2023/12/04 13:23:24;;;;;;;2.15;1.20;;;18.20;50.80;;;;;;6159999;23;20601;-84
2023/12/04 13:25:49;;;;;;;2.95;1.10;;;18.30;51.30;;;;;;6135614;23;20146;-86
2023/12/04 13:28:15;;;;;;;1.38;1.17;;;18.30;51.50;;;;;;6160412;23;20139;-85
2023/12/04 13:30:42;;;;;;;1.85;1.23;;;18.20;51.60;;;;;;6160097;23;20131;-85
2023/12/04 13:33:08;;;;;;;2.00;0.82;;;18.30;51.20;;;;;;6159504;23;20158;-85
2023/12/04 13:35:34;;;;;;;1.77;1.13;;;18.20;51.50;;;;;;6159569;23;20634;-85
2023/12/04 13:38:00;;;;;;;2.08;1.27;;;18.20;50.90;;;;;;6158446;23;20139;-84
2023/12/04 13:40:28;;;;;;;1.33;1.10;;;18.20;51.00;;;;;;6157709;23;20262;-85
2023/12/04 13:45:31;;;;;;;1.30;1.08;;;18.20;51.70;;;;;;6161613;23;20177;-85
2023/12/04 13:47:57;;;;;;;2.30;0.98;;;18.20;51.00;;;;;;6158507;23;20551;-84
2023/12/04 13:50:23;;;;;;;1.77;1.38;;;18.30;50.40;;;;;;6158994;23;20562;-85
2023/12/04 13:52:55;;;;;;;1.17;1.08;;;18.20;51.00;;;;;;6157442;23;20178;-85
2023/12/04 13:55:31;;;;;;;2.03;1.40;;;18.30;50.40;;;;;;6134499;23;20162;-85
2023/12/04 13:58:10;;;;;;;1.23;0.90;;;18.30;50.70;;;;;;6159587;23;20142;-85
2023/12/04 14:00:37;;;;;;;1.50;1.10;;;18.30;50.20;;;;;;6159699;23;20227;-84
2023/12/04 14:05:28;;;;;;;4.55;2.20;;;18.30;51.90;;;;;;6151732;23;20207;-82
2023/12/04 14:07:58;;;;;;;6.78;1.83;;;18.20;51.90;;;;;;6154471;23;20526;-84
2023/12/04 14:10:26;;;;;;;3.10;1.42;;;18.20;52.50;;;;;;6085383;23;20147;-83
2023/12/04 14:12:54;;;;;;;4.57;2.08;;;18.30;52.50;;;;;;6134984;23;20360;-84
2023/12/04 14:15:20;;;;;;;4.93;1.58;;;18.20;53.20;;;;;;6162492;23;20142;-83
2023/12/04 14:17:47;;;;;;;1.80;1.40;;;18.10;52.70;;;;;;6161641;23;20139;-84
2023/12/04 14:20:17;;;;;;;2.17;1.50;;;18.20;51.70;;;;;;6159463;23;20720;-83
2023/12/04 14:22:43;;;;;;;2.45;1.58;;;18.20;51.70;;;;;;6127745;23;20205;-84
2023/12/04 14:25:09;;;;;;;2.53;1.38;;;18.20;52.50;;;;;;6102498;23;20159;-83
2023/12/04 14:27:43;;;;;;;2.63;1.38;;;18.20;53.20;;;;;;6080473;23;20239;-81
2023/12/04 14:30:12;;;;;;;3.53;1.38;;;18.10;52.50;;;;;;6129025;23;20155;-85
2023/12/04 14:32:40;;;;;;;4.38;1.30;;;18.10;53.50;;;;;;6107676;23;20194;-83
2023/12/04 14:35:20;;;;;;;;;;;;;;;;;;;;;
2023/12/04 14:37:46;;;;;;;5.45;1.85;;;18.10;53.50;;;;;;6031553;23;20186;-86
2023/12/04 14:40:14;;;;;;;3.97;1.50;;;18.10;54.20;;;;;;6131103;23;20525;-82
2023/12/04 14:42:39;;;;;;;3.85;1.33;;;18.10;53.80;;;;;;6105757;23;20151;-83
2023/12/04 14:45:23;;;;;;;3.25;1.60;;;18.10;53.50;;;;;;6104487;23;20152;-83
2023/12/04 14:48:09;;;;;;;2.70;1.33;;;18.10;54.20;;;;;;6127007;23;20165;-81